Terminal Aerodrome Forecast
Issued by NWS

Home | Current Version | Previous Version | Text Only | Print | Product List | Glossary On
Versions: 1 2 3 4 5 6 7 8 9 10 11 12 13 14 15 16 17 18 19 20 21 22 23 24 25 26 27 28 29 30 31 32 33 34 35 36 37 38 39 40 41 42 43
591
FTUS45 KBOU 110350 AAC
TAFAPA
TAF AMD
KAPA 110350Z 1104/1124 30011KT P6SM SCT140 BKN220
     FM110500 26009KT P6SM FEW140 BKN220
     FM110700 18007KT P6SM SCT220
     FM111800 30009KT P6SM FEW120 SCT220
      TEMPO 1120/1124 31013G20KT=

USA.gov is the U.S. government's official web portal to all federal, state and local government web resources and services.